createdAt,value
2019-04-10T00:00:45.800Z,10.40
2019-04-10T00:03:25.694Z,10.40
2019-04-10T00:05:42.607Z,10.60
2019-04-10T00:08:10.226Z,10.70
2019-04-10T00:10:38.294Z,10.80
2019-04-10T00:13:06.682Z,10.70
2019-04-10T00:15:34.715Z,10.70
2019-04-10T00:18:02.231Z,10.70
2019-04-10T00:20:29.582Z,10.50
2019-04-10T00:22:56.868Z,10.40
2019-04-10T00:25:24.454Z,10.30
2019-04-10T00:27:52.735Z,10.50
2019-04-10T00:30:20.769Z,10.40
2019-04-10T00:32:48.196Z,10.40
2019-04-10T00:35:15.524Z,10.40
2019-04-10T00:37:42.919Z,10.40
2019-04-10T00:40:10.960Z,10.50
2019-04-10T00:42:38.356Z,10.50
2019-04-10T00:45:06.040Z,10.50
2019-04-10T00:47:33.358Z,10.40
2019-04-10T00:50:00.670Z,10.40
2019-04-10T00:52:28.213Z,10.50
2019-04-10T00:54:55.607Z,10.60
2019-04-10T00:57:23.541Z,10.50
2019-04-10T00:59:51.074Z,10.60
2019-04-10T01:02:18.584Z,10.60
2019-04-10T01:04:46.719Z,10.40
2019-04-10T01:07:14.786Z,10.30
2019-04-10T01:09:42.199Z,10.20
2019-04-10T01:12:09.847Z,10.10
2019-04-10T01:14:38.084Z,10.10
2019-04-10T01:17:06.220Z,10.10
2019-04-10T01:19:34.359Z,10.20
2019-04-10T01:22:01.878Z,10.10
2019-04-10T01:24:30.611Z,10.10
2019-04-10T01:26:57.904Z,10.20
2019-04-10T01:29:25.258Z,10.10
2019-04-10T01:31:53.136Z,10.20
2019-04-10T01:34:21.089Z,10.00
2019-04-10T01:36:48.510Z,10.00
2019-04-10T01:39:20.920Z,10.00
2019-04-10T01:41:48.227Z,10.00
2019-04-10T01:44:15.526Z,9.80
2019-04-10T01:46:42.845Z,9.80
2019-04-10T01:49:10.329Z,9.90
2019-04-10T01:51:37.798Z,10.10
2019-04-10T01:54:05.101Z,10.20
2019-04-10T01:56:35.122Z,10.40
2019-04-10T01:59:01.925Z,10.10
2019-04-10T02:01:34.652Z,10.10
2019-04-10T02:04:02.656Z,9.90
2019-04-10T02:06:30.124Z,10.10
2019-04-10T02:08:58.352Z,10.20
2019-04-10T02:11:28.054Z,10.20
2019-04-10T02:13:56.713Z,10.20
2019-04-10T02:16:25.537Z,10.20
2019-04-10T02:18:54.057Z,10.40
2019-04-10T02:21:21.510Z,10.30
2019-04-10T02:23:48.852Z,10.30
2019-04-10T02:26:17.094Z,10.20
2019-04-10T02:28:44.978Z,9.90
2019-04-10T02:31:12.721Z,9.90
2019-04-10T02:33:41.241Z,10.00
2019-04-10T02:36:08.650Z,10.10
2019-04-10T02:38:53.325Z,10.10
2019-04-10T02:41:05.834Z,10.10
2019-04-10T02:43:33.708Z,10.00
2019-04-10T02:46:02.219Z,10.00
2019-04-10T02:48:31.895Z,10.10
2019-04-10T02:50:59.663Z,10.20
2019-04-10T02:53:27.662Z,10.10
2019-04-10T02:55:55.783Z,10.10
2019-04-10T02:58:24.712Z,10.00
2019-04-10T03:00:54.460Z,10.10
2019-04-10T03:03:22.419Z,9.80
2019-04-10T03:05:50.981Z,9.60
2019-04-10T03:08:35.962Z,9.60
2019-04-10T03:10:53.771Z,9.70
2019-04-10T03:13:17.917Z,10.00
2019-04-10T03:15:45.303Z,10.10
2019-04-10T03:18:12.976Z,10.20
2019-04-10T03:20:40.579Z,10.10
2019-04-10T03:23:08.009Z,10.20
2019-04-10T03:25:35.398Z,10.20
2019-04-10T03:28:03.009Z,10.20
2019-04-10T03:30:34.073Z,10.10
2019-04-10T03:33:12.283Z,10.10
2019-04-10T03:35:43.054Z,10.00
2019-04-10T03:38:11.671Z,10.00
2019-04-10T03:40:39.673Z,9.90
2019-04-10T03:43:07.691Z,9.80
2019-04-10T03:45:35.194Z,9.70
2019-04-10T03:48:02.544Z,9.70
2019-04-10T03:50:30.017Z,9.60
2019-04-10T03:52:57.926Z,9.70
2019-04-10T03:55:25.390Z,9.70
2019-04-10T03:57:53.362Z,9.70
2019-04-10T04:00:21.056Z,9.70
2019-04-10T04:02:48.528Z,9.80
2019-04-10T04:05:15.805Z,9.70
2019-04-10T04:07:43.213Z,9.60
2019-04-10T04:10:10.878Z,9.70
2019-04-10T04:12:39.524Z,9.80
2019-04-10T04:15:06.973Z,9.80
2019-04-10T04:17:34.277Z,9.80
2019-04-10T04:20:02.513Z,9.80
2019-04-10T04:22:30.593Z,9.90
2019-04-10T04:24:58.211Z,9.90
2019-04-10T04:27:25.688Z,9.80
2019-04-10T04:29:52.958Z,9.80
2019-04-10T04:32:20.285Z,9.90
2019-04-10T04:34:47.650Z,9.90
2019-04-10T04:37:14.960Z,9.90
2019-04-10T04:39:43.274Z,9.90
2019-04-10T04:42:10.706Z,9.80
2019-04-10T04:44:38.022Z,9.70
2019-04-10T04:47:06.283Z,9.60
2019-04-10T04:49:33.730Z,9.60
2019-04-10T04:52:01.014Z,9.60
2019-04-10T04:54:28.913Z,9.50
2019-04-10T04:56:56.354Z,9.50
2019-04-10T04:59:23.931Z,9.50
2019-04-10T05:01:51.359Z,9.50
2019-04-10T05:04:19.365Z,9.60
2019-04-10T05:06:47.711Z,9.70
2019-04-10T05:09:27.282Z,9.70
2019-04-10T05:11:44.797Z,9.60
2019-04-10T05:14:13.189Z,9.60
2019-04-10T05:16:41.564Z,9.50
2019-04-10T05:19:10.167Z,9.50
2019-04-10T05:21:37.684Z,9.50
2019-04-10T05:24:05.283Z,9.70
2019-04-10T05:26:32.700Z,9.70
2019-04-10T05:29:00.555Z,9.70
2019-04-10T05:31:27.872Z,9.90
2019-04-10T05:33:55.369Z,9.80
2019-04-10T05:36:23.579Z,10.00
2019-04-10T05:38:51.137Z,10.00
2019-04-10T05:41:19.671Z,10.00
2019-04-10T05:43:47.154Z,10.10
2019-04-10T05:46:14.501Z,10.10
2019-04-10T05:48:41.977Z,10.10
2019-04-10T05:51:09.534Z,10.20
2019-04-10T05:53:36.976Z,10.40
2019-04-10T05:56:04.314Z,10.40
2019-04-10T05:58:31.594Z,10.40
2019-04-10T06:01:01.102Z,10.40
2019-04-10T06:03:28.431Z,10.30
2019-04-10T06:05:56.413Z,10.50
2019-04-10T06:08:25.825Z,10.40
2019-04-10T06:10:53.249Z,10.40
2019-04-10T06:13:20.524Z,10.40
2019-04-10T06:15:47.862Z,10.40
2019-04-10T06:18:15.342Z,10.40
2019-04-10T06:20:42.800Z,10.50
2019-04-10T06:23:10.139Z,10.40
2019-04-10T06:25:41.008Z,10.40
2019-04-10T06:28:07.340Z,10.40
2019-04-10T06:30:34.727Z,10.50
2019-04-10T06:33:02.220Z,10.50
2019-04-10T06:35:30.196Z,10.60
2019-04-10T06:37:58.750Z,10.40
2019-04-10T06:40:27.521Z,10.50
2019-04-10T06:42:56.921Z,10.50
2019-04-10T06:45:26.009Z,10.60
2019-04-10T06:47:53.374Z,10.50
2019-04-10T06:50:23.151Z,10.70
2019-04-10T06:52:51.338Z,10.60
2019-04-10T06:55:18.734Z,10.30
2019-04-10T06:57:53.030Z,10.10
2019-04-10T07:00:18.493Z,10.10
2019-04-10T07:02:46.381Z,10.40
2019-04-10T07:05:15.025Z,10.60
2019-04-10T07:07:51.252Z,10.60
2019-04-10T07:10:24.383Z,10.50
2019-04-10T07:12:41.737Z,10.60
2019-04-10T07:15:10.538Z,10.70
2019-04-10T07:17:41.258Z,10.80
2019-04-10T07:20:07.653Z,10.90
2019-04-10T07:22:34.987Z,11.00
2019-04-10T07:25:02.868Z,11.30
2019-04-10T07:27:33.545Z,11.60
2019-04-10T07:29:59.878Z,11.50
2019-04-10T07:32:27.828Z,11.60
2019-04-10T07:34:59.208Z,11.70
2019-04-10T07:37:25.521Z,11.80
2019-04-10T07:39:53.449Z,12.00
2019-04-10T07:42:28.409Z,12.00
2019-04-10T07:44:50.047Z,11.70
2019-04-10T07:47:17.509Z,11.50
2019-04-10T07:49:44.914Z,11.30
2019-04-10T07:52:12.587Z,11.20
2019-04-10T07:54:42.523Z,10.90
2019-04-10T07:57:09.116Z,10.90
2019-04-10T07:59:37.508Z,10.90
2019-04-10T08:02:07.211Z,11.00
2019-04-10T08:04:35.240Z,11.00
2019-04-10T08:07:03.090Z,10.90
2019-04-10T08:09:30.462Z,10.60
2019-04-10T08:11:58.733Z,10.40
2019-04-10T08:14:27.222Z,10.30
2019-04-10T08:16:55.317Z,10.20
2019-04-10T08:19:25.293Z,10.30
2019-04-10T08:21:52.823Z,10.20
2019-04-10T08:24:20.334Z,10.20
2019-04-10T08:26:47.763Z,10.30
2019-04-10T08:29:16.005Z,10.50
2019-04-10T08:31:44.280Z,10.40
2019-04-10T08:34:11.669Z,10.50
2019-04-10T08:36:39.482Z,10.60
2019-04-10T08:39:06.890Z,10.50
2019-04-10T08:41:35.147Z,10.70
2019-04-10T08:44:02.587Z,10.70
2019-04-10T08:46:30.179Z,10.80
2019-04-10T08:48:58.077Z,10.80
2019-04-10T08:51:25.699Z,10.70
2019-04-10T08:53:55.036Z,10.60
2019-04-10T08:56:22.634Z,10.40
2019-04-10T08:58:50.007Z,10.40
2019-04-10T09:01:17.459Z,10.60
2019-04-10T09:03:44.955Z,10.60
2019-04-10T09:06:13.277Z,10.40
2019-04-10T09:08:41.992Z,10.50
2019-04-10T09:11:09.493Z,10.40
2019-04-10T09:13:36.860Z,10.50
2019-04-10T09:16:04.557Z,10.50
2019-04-10T09:18:31.927Z,10.40
2019-04-10T09:20:59.452Z,10.50
2019-04-10T09:23:37.410Z,10.50
2019-04-10T09:25:56.059Z,10.60
2019-04-10T09:28:24.346Z,10.80
2019-04-10T09:30:51.755Z,10.90
2019-04-10T09:33:24.252Z,10.80
2019-04-10T09:35:48.854Z,11.00
2019-04-10T09:38:16.771Z,11.00
2019-04-10T09:40:44.715Z,10.90
2019-04-10T09:43:12.056Z,10.80
2019-04-10T09:45:39.368Z,10.90
2019-04-10T09:48:06.766Z,11.10
2019-04-10T09:50:35.306Z,11.20
2019-04-10T09:53:02.751Z,11.40
2019-04-10T09:55:30.092Z,11.30
2019-04-10T09:57:57.534Z,11.00
2019-04-10T10:00:27.726Z,10.70
2019-04-10T10:02:55.242Z,10.90
2019-04-10T10:05:22.567Z,10.90
2019-04-10T10:07:50.655Z,11.00
2019-04-10T10:10:18.085Z,11.20
2019-04-10T10:12:45.373Z,11.30
2019-04-10T10:15:13.477Z,11.50
2019-04-10T10:17:41.245Z,11.50
2019-04-10T10:20:11.306Z,11.60
2019-04-10T10:22:39.041Z,11.60
2019-04-10T10:25:06.990Z,11.80
2019-04-10T10:27:34.428Z,11.60
2019-04-10T10:30:02.223Z,11.50
2019-04-10T10:32:29.822Z,11.50
2019-04-10T10:34:57.148Z,11.70
2019-04-10T10:37:24.583Z,11.90
2019-04-10T10:39:52.830Z,12.10
2019-04-10T10:42:21.250Z,12.20
2019-04-10T10:44:48.706Z,12.20
2019-04-10T10:47:16.020Z,12.30
2019-04-10T10:49:44.386Z,12.40
2019-04-10T10:52:11.791Z,12.30
2019-04-10T10:54:39.104Z,12.40
2019-04-10T10:57:06.974Z,12.30
2019-04-10T10:59:35.557Z,12.10
2019-04-10T11:02:04.330Z,11.70
2019-04-10T11:04:31.813Z,11.70
2019-04-10T11:07:00.946Z,11.70
2019-04-10T11:09:28.736Z,11.80
2019-04-10T11:11:56.066Z,11.70
2019-04-10T11:14:23.717Z,11.90
2019-04-10T11:16:51.642Z,11.90
2019-04-10T11:19:19.804Z,11.90
2019-04-10T11:21:47.295Z,12.00
2019-04-10T11:24:14.996Z,12.10
2019-04-10T11:26:42.699Z,12.00
2019-04-10T11:29:11.837Z,11.60
2019-04-10T11:31:39.657Z,11.60
2019-04-10T11:34:08.280Z,11.80
2019-04-10T11:36:36.267Z,12.00
2019-04-10T11:39:16.141Z,12.00
2019-04-10T11:41:37.233Z,12.00
2019-04-10T11:44:04.677Z,12.00
2019-04-10T11:46:32.261Z,11.90
2019-04-10T11:49:00.847Z,11.80
2019-04-10T11:51:31.540Z,11.70
2019-04-10T11:53:59.080Z,11.60
2019-04-10T11:56:29.124Z,11.70
2019-04-10T11:58:56.918Z,11.80
2019-04-10T12:01:25.509Z,11.70
2019-04-10T12:03:56.157Z,11.80
2019-04-10T12:06:25.000Z,11.80
2019-04-10T12:11:21.668Z,11.60
2019-04-10T12:13:50.380Z,11.60
2019-04-10T12:16:17.823Z,11.70
2019-04-10T12:18:45.523Z,11.90
2019-04-10T12:21:13.530Z,12.00
2019-04-10T12:23:40.986Z,12.20
2019-04-10T12:26:09.551Z,12.40
2019-04-10T12:28:38.091Z,12.60
2019-04-10T12:31:06.012Z,12.80
2019-04-10T12:33:33.759Z,13.10
2019-04-10T12:36:01.126Z,13.20
2019-04-10T12:38:28.454Z,13.20
2019-04-10T12:40:55.736Z,13.10
2019-04-10T12:43:23.205Z,12.80
2019-04-10T12:45:50.739Z,12.70
2019-04-10T12:48:18.770Z,12.60
2019-04-10T12:50:46.153Z,12.30
2019-04-10T12:53:13.597Z,12.40
2019-04-10T12:55:41.771Z,12.20
2019-04-10T12:58:13.550Z,12.20
2019-04-10T13:00:38.476Z,12.20
2019-04-10T13:03:06.877Z,12.10
2019-04-10T13:05:35.621Z,12.10
2019-04-10T13:08:14.717Z,11.90
2019-04-10T13:10:33.571Z,12.00
2019-04-10T13:13:01.948Z,11.80
2019-04-10T13:15:29.752Z,11.80
2019-04-10T13:17:57.536Z,11.90
2019-04-10T13:20:26.058Z,11.90
2019-04-10T13:22:53.428Z,11.90
2019-04-10T13:25:21.854Z,11.70
2019-04-10T13:27:49.226Z,11.90
2019-04-10T13:30:16.635Z,11.90
2019-04-10T13:32:44.467Z,11.90
2019-04-10T13:35:12.187Z,11.90
2019-04-10T13:37:39.566Z,11.80
2019-04-10T13:40:07.763Z,12.00
2019-04-10T13:42:35.171Z,12.00
2019-04-10T13:45:02.863Z,12.10
2019-04-10T13:47:30.547Z,12.10
2019-04-10T13:49:58.056Z,12.20
2019-04-10T13:52:25.929Z,12.10
2019-04-10T13:54:53.408Z,12.10
2019-04-10T13:57:20.740Z,12.20
2019-04-10T13:59:49.009Z,12.00
2019-04-10T14:02:25.653Z,12.10
2019-04-10T14:04:53.448Z,12.10
2019-04-10T14:07:22.008Z,12.20
2019-04-10T14:09:52.011Z,12.20
2019-04-10T14:12:18.710Z,12.10
2019-04-10T14:14:46.122Z,12.20
2019-04-10T14:17:13.408Z,12.30
2019-04-10T14:19:41.513Z,12.30
2019-04-10T14:22:09.277Z,12.20
2019-04-10T14:24:42.835Z,12.20
2019-04-10T14:27:12.703Z,12.20
2019-04-10T14:29:40.771Z,12.30
2019-04-10T14:32:11.196Z,12.30
2019-04-10T14:34:38.847Z,12.40
2019-04-10T14:37:09.965Z,12.50
2019-04-10T14:39:37.638Z,12.50
2019-04-10T14:42:04.974Z,12.60
2019-04-10T14:44:32.711Z,12.50
2019-04-10T14:47:00.252Z,12.30
2019-04-10T14:49:27.662Z,12.30
2019-04-10T14:51:54.985Z,12.30
2019-04-10T14:54:22.248Z,12.40
2019-04-10T14:56:50.503Z,12.40
2019-04-10T14:59:17.874Z,12.50
2019-04-10T15:01:46.243Z,12.50
2019-04-10T15:04:13.662Z,12.50
2019-04-10T15:06:41.733Z,12.50
2019-04-10T15:09:22.174Z,12.40
2019-04-10T15:11:46.839Z,12.40
2019-04-10T15:14:15.216Z,12.30
2019-04-10T15:16:52.990Z,12.30
2019-04-10T15:19:13.152Z,12.30
2019-04-10T15:21:40.453Z,12.20
2019-04-10T15:24:08.920Z,12.10
2019-04-10T15:26:36.292Z,12.10
2019-04-10T15:29:03.784Z,12.00
2019-04-10T15:31:31.302Z,12.00
2019-04-10T15:33:58.629Z,12.00
2019-04-10T15:36:26.513Z,12.00
2019-04-10T15:38:54.619Z,12.00
2019-04-10T15:41:22.991Z,12.10
2019-04-10T15:43:51.713Z,12.00
2019-04-10T15:46:19.204Z,12.00
2019-04-10T15:48:46.654Z,12.10
2019-04-10T15:51:14.194Z,12.10
2019-04-10T15:53:41.528Z,12.10
2019-04-10T15:56:09.665Z,12.10
2019-04-10T15:58:37.030Z,12.10
2019-04-10T16:01:06.181Z,12.00
2019-04-10T16:03:34.494Z,12.00
2019-04-10T16:06:02.110Z,12.00
2019-04-10T16:08:29.430Z,12.00
2019-04-10T16:11:17.547Z,12.10
2019-04-10T16:13:46.866Z,11.90
2019-04-10T16:16:40.310Z,11.80
2019-04-10T16:19:18.478Z,11.80
2019-04-10T16:21:46.906Z,11.80
2019-04-10T16:24:14.482Z,11.70
2019-04-10T16:26:43.226Z,11.70
2019-04-10T16:29:11.628Z,11.70
2019-04-10T16:31:39.701Z,11.80
2019-04-10T16:34:07.299Z,11.70
2019-04-10T16:36:35.220Z,11.60
2019-04-10T16:39:05.182Z,11.60
2019-04-10T16:41:33.316Z,11.70
2019-04-10T16:44:00.675Z,11.60
2019-04-10T16:46:27.975Z,11.60
2019-04-10T16:48:56.034Z,11.60
2019-04-10T16:51:23.985Z,11.60
2019-04-10T16:53:51.801Z,11.60
2019-04-10T16:56:19.175Z,11.60
2019-04-10T16:58:46.521Z,11.60
2019-04-10T17:01:14.657Z,11.50
2019-04-10T17:03:42.148Z,11.40
2019-04-10T17:06:10.100Z,11.40
2019-04-10T17:08:38.663Z,11.20
2019-04-10T17:11:07.163Z,11.30
2019-04-10T17:13:34.910Z,11.30
2019-04-10T17:16:02.401Z,11.30
2019-04-10T17:18:30.859Z,11.30
2019-04-10T17:20:58.214Z,11.20
2019-04-10T17:23:26.624Z,11.20
2019-04-10T17:25:54.820Z,11.20
2019-04-10T17:28:24.574Z,11.10
2019-04-10T17:30:51.900Z,11.10
2019-04-10T17:33:20.569Z,11.10
2019-04-10T17:35:48.054Z,11.00
2019-04-10T17:38:15.367Z,11.10
2019-04-10T17:40:48.756Z,11.10
2019-04-10T17:43:12.852Z,11.10
2019-04-10T17:45:40.654Z,11.10
2019-04-10T17:48:08.021Z,10.90
2019-04-10T17:50:35.365Z,10.90
2019-04-10T17:53:03.149Z,10.90
2019-04-10T17:55:31.489Z,11.00
2019-04-10T17:57:59.010Z,11.00
2019-04-10T18:00:35.562Z,11.10
2019-04-10T18:03:03.454Z,11.10
2019-04-10T18:05:30.927Z,11.20
2019-04-10T18:07:58.699Z,11.20
2019-04-10T18:10:34.390Z,11.10
2019-04-10T18:12:56.440Z,11.10
2019-04-10T18:15:24.192Z,11.20
2019-04-10T18:17:51.551Z,11.10
2019-04-10T18:20:19.890Z,11.10
2019-04-10T18:22:47.501Z,10.90
2019-04-10T18:25:15.886Z,11.00
2019-04-10T18:27:43.254Z,11.00
2019-04-10T18:30:10.991Z,10.80
2019-04-10T18:32:40.130Z,10.90
2019-04-10T18:35:08.781Z,10.80
2019-04-10T18:37:37.082Z,10.80
2019-04-10T18:40:05.288Z,10.80
2019-04-10T18:42:32.925Z,10.90
2019-04-10T18:45:01.788Z,10.80
2019-04-10T18:47:32.027Z,10.80
2019-04-10T18:49:58.476Z,10.70
2019-04-10T18:52:25.852Z,10.60
2019-04-10T18:54:54.057Z,10.60
2019-04-10T18:57:22.029Z,10.60
2019-04-10T18:59:59.361Z,10.60
2019-04-10T19:02:46.190Z,10.50
2019-04-10T19:05:16.757Z,10.60
2019-04-10T19:07:44.088Z,10.60
2019-04-10T19:10:12.897Z,10.60
2019-04-10T19:12:41.103Z,10.60
2019-04-10T19:15:08.895Z,10.60
2019-04-10T19:17:37.141Z,10.50
2019-04-10T19:20:07.101Z,10.50
2019-04-10T19:22:34.801Z,10.50
2019-04-10T19:25:03.112Z,10.50
2019-04-10T19:27:31.795Z,10.50
2019-04-10T19:29:59.335Z,10.50
2019-04-10T19:32:35.412Z,10.60
2019-04-10T19:35:04.657Z,10.60
2019-04-10T19:37:32.455Z,10.60
2019-04-10T19:39:59.940Z,10.60
2019-04-10T19:42:27.374Z,10.60
2019-04-10T19:44:55.227Z,10.60
2019-04-10T19:47:23.046Z,10.60
2019-04-10T19:49:50.451Z,10.50
2019-04-10T19:52:17.882Z,10.50
2019-04-10T19:54:45.215Z,10.50
2019-04-10T19:57:15.277Z,10.50
2019-04-10T19:59:43.964Z,10.40
2019-04-10T20:02:11.488Z,10.30
2019-04-10T20:04:38.854Z,10.30
2019-04-10T20:07:06.941Z,10.40
2019-04-10T20:09:34.665Z,10.40
2019-04-10T20:12:02.452Z,10.30
2019-04-10T20:14:30.588Z,10.30
2019-04-10T20:16:58.040Z,10.30
2019-04-10T20:19:26.546Z,10.20
2019-04-10T20:21:54.518Z,10.20
2019-04-10T20:24:22.889Z,10.10
2019-04-10T20:26:50.438Z,10.10
2019-04-10T20:29:19.721Z,10.10
2019-04-10T20:31:48.084Z,10.10
2019-04-10T20:34:15.778Z,10.10
2019-04-10T20:36:43.339Z,10.10
2019-04-10T20:39:12.896Z,10.00
2019-04-10T20:41:49.741Z,10.00
2019-04-10T20:44:09.719Z,9.90
2019-04-10T20:46:38.111Z,9.80
2019-04-10T20:49:07.990Z,9.80
2019-04-10T20:51:34.911Z,9.80
2019-04-10T20:54:02.344Z,9.70
2019-04-10T20:56:30.667Z,9.60
2019-04-10T20:58:59.281Z,9.60
2019-04-10T21:01:26.824Z,9.70
2019-04-10T21:03:54.146Z,9.70
2019-04-10T21:06:21.465Z,9.60
2019-04-10T21:08:48.790Z,9.60
2019-04-10T21:11:16.227Z,9.60
2019-04-10T21:13:44.391Z,9.60
2019-04-10T21:16:13.582Z,9.60
2019-04-10T21:18:41.860Z,9.50
2019-04-10T21:21:10.289Z,9.60
2019-04-10T21:23:38.098Z,9.70
2019-04-10T21:26:06.130Z,9.70
2019-04-10T21:28:34.697Z,9.60
2019-04-10T21:31:20.102Z,9.50
2019-04-10T21:34:15.280Z,9.50
2019-04-10T21:36:43.421Z,9.40
2019-04-10T21:39:12.186Z,9.40
2019-04-10T21:41:39.817Z,9.20
2019-04-10T21:44:08.627Z,9.30
2019-04-10T21:46:36.769Z,9.30
2019-04-10T21:49:04.339Z,9.30
2019-04-10T21:51:33.482Z,9.40
2019-04-10T21:54:02.121Z,9.40
2019-04-10T21:56:29.623Z,9.40
2019-04-10T21:58:57.061Z,9.40
2019-04-10T22:01:24.693Z,9.30
2019-04-10T22:03:52.264Z,9.40
2019-04-10T22:06:45.265Z,9.30
2019-04-10T22:09:47.506Z,9.40
2019-04-10T22:12:25.896Z,9.50
2019-04-10T22:14:50.234Z,9.50
2019-04-10T22:17:17.783Z,9.50
2019-04-10T22:19:45.303Z,9.50
2019-04-10T22:22:12.870Z,9.50
2019-04-10T22:24:40.564Z,9.50
2019-04-10T22:27:09.205Z,9.50
2019-04-10T22:29:36.935Z,9.50
2019-04-10T22:32:04.299Z,9.50
2019-04-10T22:34:32.077Z,9.50
2019-04-10T22:37:00.145Z,9.50
2019-04-10T22:39:27.554Z,9.50
2019-04-10T22:41:56.881Z,9.40
2019-04-10T22:44:34.661Z,9.40
2019-04-10T22:46:54.414Z,9.40
2019-04-10T22:49:22.193Z,9.40
2019-04-10T22:51:49.682Z,9.40
2019-04-10T22:54:19.877Z,9.40
2019-04-10T22:56:47.782Z,9.30
2019-04-10T22:59:15.626Z,9.30
2019-04-10T23:01:43.343Z,9.40
2019-04-10T23:04:10.770Z,9.30
2019-04-10T23:06:38.159Z,9.40
2019-04-10T23:09:08.433Z,9.40
2019-04-10T23:11:41.733Z,9.30
2019-04-10T23:14:06.797Z,9.30
2019-04-10T23:16:34.347Z,9.30
2019-04-10T23:19:01.732Z,9.30
2019-04-10T23:21:29.018Z,9.20
2019-04-10T23:23:57.112Z,9.20
2019-04-10T23:26:24.935Z,9.20
2019-04-10T23:28:52.676Z,9.20
2019-04-10T23:31:20.191Z,9.20
2019-04-10T23:33:48.319Z,9.20
2019-04-10T23:36:16.047Z,9.10
2019-04-10T23:38:43.815Z,9.10
2019-04-10T23:41:11.603Z,9.10
2019-04-10T23:43:39.871Z,9.10
2019-04-10T23:46:08.262Z,9.00
2019-04-10T23:48:37.019Z,8.90
2019-04-10T23:51:04.969Z,8.70
2019-04-10T23:53:32.856Z,8.50
2019-04-10T23:56:00.371Z,8.50
2019-04-10T23:58:27.692Z,8.40
